sensor_id;sensor_type;location;lat;lon;timestamp;P1;durP1;ratioP1;P2;durP2;ratioP2
75096;SDS011;63684;47.964;11.186;2023-05-08T00:01:32;1.40;;;1.30;;
75096;SDS011;63684;47.964;11.186;2023-05-08T00:03:58;2.33;;;1.30;;
75096;SDS011;63684;47.964;11.186;2023-05-08T00:06:23;1.70;;;1.60;;
75096;SDS011;63684;47.964;11.186;2023-05-08T00:08:48;3.93;;;1.50;;
75096;SDS011;63684;47.964;11.186;2023-05-08T00:11:14;1.50;;;1.40;;
75096;SDS011;63684;47.964;11.186;2023-05-08T00:13:40;1.60;;;1.43;;
75096;SDS011;63684;47.964;11.186;2023-05-08T00:16:06;1.87;;;1.40;;
75096;SDS011;63684;47.964;11.186;2023-05-08T00:18:33;2.67;;;1.47;;
75096;SDS011;63684;47.964;11.186;2023-05-08T00:21:00;1.77;;;1.60;;
75096;SDS011;63684;47.964;11.186;2023-05-08T00:23:25;1.47;;;1.23;;
75096;SDS011;63684;47.964;11.186;2023-05-08T00:25:50;1.73;;;1.60;;
75096;SDS011;63684;47.964;11.186;2023-05-08T00:28:16;2.13;;;1.57;;
75096;SDS011;63684;47.964;11.186;2023-05-08T00:30:41;1.33;;;1.17;;
75096;SDS011;63684;47.964;11.186;2023-05-08T00:33:07;1.23;;;1.10;;
75096;SDS011;63684;47.964;11.186;2023-05-08T00:35:33;1.10;;;1.10;;
75096;SDS011;63684;47.964;11.186;2023-05-08T00:37:58;1.37;;;1.27;;
75096;SDS011;63684;47.964;11.186;2023-05-08T00:40:24;1.40;;;1.30;;
75096;SDS011;63684;47.964;11.186;2023-05-08T00:42:49;1.37;;;1.23;;
75096;SDS011;63684;47.964;11.186;2023-05-08T00:45:14;1.77;;;1.40;;
75096;SDS011;63684;47.964;11.186;2023-05-08T00:47:40;1.43;;;1.30;;
75096;SDS011;63684;47.964;11.186;2023-05-08T00:50:06;1.33;;;1.23;;
75096;SDS011;63684;47.964;11.186;2023-05-08T00:52:32;3.57;;;1.50;;
75096;SDS011;63684;47.964;11.186;2023-05-08T00:54:58;3.97;;;1.60;;
75096;SDS011;63684;47.964;11.186;2023-05-08T00:57:25;1.70;;;1.60;;
75096;SDS011;63684;47.964;11.186;2023-05-08T00:59:50;1.57;;;1.47;;
75096;SDS011;63684;47.964;11.186;2023-05-08T01:02:16;1.87;;;1.30;;
75096;SDS011;63684;47.964;11.186;2023-05-08T01:04:42;2.73;;;1.60;;
75096;SDS011;63684;47.964;11.186;2023-05-08T01:07:09;2.07;;;1.87;;
75096;SDS011;63684;47.964;11.186;2023-05-08T01:09:35;1.93;;;1.50;;
75096;SDS011;63684;47.964;11.186;2023-05-08T01:17:23;1.50;;;1.40;;
75096;SDS011;63684;47.964;11.186;2023-05-08T01:22:37;2.13;;;1.93;;
75096;SDS011;63684;47.964;11.186;2023-05-08T01:25:26;2.30;;;2.20;;
75096;SDS011;63684;47.964;11.186;2023-05-08T01:28:20;1.63;;;1.53;;
75096;SDS011;63684;47.964;11.186;2023-05-08T01:30:58;2.30;;;1.87;;
75096;SDS011;63684;47.964;11.186;2023-05-08T01:33:50;1.90;;;1.80;;
75096;SDS011;63684;47.964;11.186;2023-05-08T01:36:51;2.23;;;1.80;;
75096;SDS011;63684;47.964;11.186;2023-05-08T01:44:36;1.87;;;1.60;;
75096;SDS011;63684;47.964;11.186;2023-05-08T01:47:04;2.87;;;1.73;;
75096;SDS011;63684;47.964;11.186;2023-05-08T01:49:33;1.83;;;1.73;;
75096;SDS011;63684;47.964;11.186;2023-05-08T01:52:07;1.60;;;1.50;;
75096;SDS011;63684;47.964;11.186;2023-05-08T01:54:45;1.90;;;1.70;;
75096;SDS011;63684;47.964;11.186;2023-05-08T01:57:13;1.40;;;1.30;;
75096;SDS011;63684;47.964;11.186;2023-05-08T01:59:39;1.50;;;1.40;;
75096;SDS011;63684;47.964;11.186;2023-05-08T02:02:07;2.07;;;1.40;;
75096;SDS011;63684;47.964;11.186;2023-05-08T02:04:33;2.27;;;1.60;;
75096;SDS011;63684;47.964;11.186;2023-05-08T02:06:59;1.40;;;1.30;;
75096;SDS011;63684;47.964;11.186;2023-05-08T02:09:25;3.37;;;1.70;;
75096;SDS011;63684;47.964;11.186;2023-05-08T02:11:50;1.33;;;1.23;;
75096;SDS011;63684;47.964;11.186;2023-05-08T02:14:17;1.57;;;1.47;;
75096;SDS011;63684;47.964;11.186;2023-05-08T02:16:46;2.37;;;1.63;;
75096;SDS011;63684;47.964;11.186;2023-05-08T02:19:13;3.70;;;1.67;;
75096;SDS011;63684;47.964;11.186;2023-05-08T02:21:40;1.90;;;1.80;;
75096;SDS011;63684;47.964;11.186;2023-05-08T02:24:06;1.40;;;1.30;;
75096;SDS011;63684;47.964;11.186;2023-05-08T02:26:32;2.10;;;1.20;;
75096;SDS011;63684;47.964;11.186;2023-05-08T02:28:58;2.13;;;1.93;;
75096;SDS011;63684;47.964;11.186;2023-05-08T02:31:24;1.43;;;1.33;;
75096;SDS011;63684;47.964;11.186;2023-05-08T02:33:50;2.10;;;1.43;;
75096;SDS011;63684;47.964;11.186;2023-05-08T02:36:17;1.90;;;1.80;;
75096;SDS011;63684;47.964;11.186;2023-05-08T02:38:43;1.70;;;1.60;;
75096;SDS011;63684;47.964;11.186;2023-05-08T02:41:11;1.70;;;1.60;;
75096;SDS011;63684;47.964;11.186;2023-05-08T02:43:38;2.43;;;1.90;;
75096;SDS011;63684;47.964;11.186;2023-05-08T02:46:08;1.70;;;1.60;;
75096;SDS011;63684;47.964;11.186;2023-05-08T02:51:26;1.90;;;1.80;;
75096;SDS011;63684;47.964;11.186;2023-05-08T02:54:09;1.70;;;1.60;;
75096;SDS011;63684;47.964;11.186;2023-05-08T02:59:50;1.90;;;1.80;;
75096;SDS011;63684;47.964;11.186;2023-05-08T03:02:39;4.17;;;1.67;;
75096;SDS011;63684;47.964;11.186;2023-05-08T03:05:14;2.10;;;1.90;;
75096;SDS011;63684;47.964;11.186;2023-05-08T03:07:42;1.60;;;1.50;;
75096;SDS011;63684;47.964;11.186;2023-05-08T03:10:10;2.40;;;1.87;;
75096;SDS011;63684;47.964;11.186;2023-05-08T03:12:41;2.03;;;1.93;;
75096;SDS011;63684;47.964;11.186;2023-05-08T03:15:26;3.80;;;2.10;;
75096;SDS011;63684;47.964;11.186;2023-05-08T03:17:56;2.10;;;2.00;;
75096;SDS011;63684;47.964;11.186;2023-05-08T03:20:23;3.50;;;1.80;;
75096;SDS011;63684;47.964;11.186;2023-05-08T03:22:50;2.77;;;1.70;;
75096;SDS011;63684;47.964;11.186;2023-05-08T03:25:17;2.00;;;1.90;;
75096;SDS011;63684;47.964;11.186;2023-05-08T03:27:44;2.10;;;2.00;;
75096;SDS011;63684;47.964;11.186;2023-05-08T03:30:10;2.17;;;1.70;;
75096;SDS011;63684;47.964;11.186;2023-05-08T03:32:39;1.70;;;1.60;;
75096;SDS011;63684;47.964;11.186;2023-05-08T03:35:05;3.27;;;1.80;;
75096;SDS011;63684;47.964;11.186;2023-05-08T03:37:31;2.37;;;1.90;;
75096;SDS011;63684;47.964;11.186;2023-05-08T03:39:57;2.40;;;1.80;;
75096;SDS011;63684;47.964;11.186;2023-05-08T03:42:23;2.13;;;1.37;;
75096;SDS011;63684;47.964;11.186;2023-05-08T03:44:49;2.07;;;1.60;;
75096;SDS011;63684;47.964;11.186;2023-05-08T03:47:19;1.80;;;1.70;;
75096;SDS011;63684;47.964;11.186;2023-05-08T03:49:46;2.20;;;2.00;;
75096;SDS011;63684;47.964;11.186;2023-05-08T03:52:13;2.20;;;2.00;;
75096;SDS011;63684;47.964;11.186;2023-05-08T03:54:39;2.53;;;1.90;;
75096;SDS011;63684;47.964;11.186;2023-05-08T03:57:05;1.70;;;1.60;;
75096;SDS011;63684;47.964;11.186;2023-05-08T04:02:23;2.63;;;2.23;;
75096;SDS011;63684;47.964;11.186;2023-05-08T04:04:54;2.17;;;2.07;;
75096;SDS011;63684;47.964;11.186;2023-05-08T04:07:28;6.27;;;2.20;;
75096;SDS011;63684;47.964;11.186;2023-05-08T04:13:04;2.20;;;2.00;;
75096;SDS011;63684;47.964;11.186;2023-05-08T04:15:34;1.90;;;1.80;;
75096;SDS011;63684;47.964;11.186;2023-05-08T04:18:03;2.27;;;1.90;;
75096;SDS011;63684;47.964;11.186;2023-05-08T04:20:31;2.13;;;1.80;;
75096;SDS011;63684;47.964;11.186;2023-05-08T04:22:57;2.30;;;2.10;;
75096;SDS011;63684;47.964;11.186;2023-05-08T04:25:23;3.47;;;2.33;;
75096;SDS011;63684;47.964;11.186;2023-05-08T04:27:50;3.10;;;2.40;;
75096;SDS011;63684;47.964;11.186;2023-05-08T04:30:18;2.60;;;2.40;;
75096;SDS011;63684;47.964;11.186;2023-05-08T04:32:44;1.90;;;1.80;;
75096;SDS011;63684;47.964;11.186;2023-05-08T04:35:10;4.10;;;1.90;;
75096;SDS011;63684;47.964;11.186;2023-05-08T04:37:37;3.30;;;2.00;;
75096;SDS011;63684;47.964;11.186;2023-05-08T04:40:03;2.67;;;2.30;;
75096;SDS011;63684;47.964;11.186;2023-05-08T04:42:30;2.57;;;2.37;;
75096;SDS011;63684;47.964;11.186;2023-05-08T04:44:58;3.30;;;3.00;;
75096;SDS011;63684;47.964;11.186;2023-05-08T04:47:24;3.20;;;2.80;;
75096;SDS011;63684;47.964;11.186;2023-05-08T04:49:50;2.73;;;2.50;;
75096;SDS011;63684;47.964;11.186;2023-05-08T04:52:16;3.23;;;2.30;;
75096;SDS011;63684;47.964;11.186;2023-05-08T04:54:41;4.10;;;2.10;;
75096;SDS011;63684;47.964;11.186;2023-05-08T04:57:07;3.57;;;1.80;;
75096;SDS011;63684;47.964;11.186;2023-05-08T04:59:32;3.50;;;1.80;;
75096;SDS011;63684;47.964;11.186;2023-05-08T05:01:58;1.60;;;1.50;;
75096;SDS011;63684;47.964;11.186;2023-05-08T05:04:27;1.77;;;1.30;;
75096;SDS011;63684;47.964;11.186;2023-05-08T05:06:54;1.30;;;1.10;;
75096;SDS011;63684;47.964;11.186;2023-05-08T05:09:19;6.03;;;1.50;;
75096;SDS011;63684;47.964;11.186;2023-05-08T05:11:45;1.47;;;1.23;;
75096;SDS011;63684;47.964;11.186;2023-05-08T05:14:10;1.30;;;1.20;;
75096;SDS011;63684;47.964;11.186;2023-05-08T05:16:36;1.43;;;1.30;;
75096;SDS011;63684;47.964;11.186;2023-05-08T05:19:02;2.70;;;1.30;;
75096;SDS011;63684;47.964;11.186;2023-05-08T05:21:28;2.17;;;1.30;;
75096;SDS011;63684;47.964;11.186;2023-05-08T05:23:53;3.37;;;1.20;;
75096;SDS011;63684;47.964;11.186;2023-05-08T05:26:19;1.30;;;1.20;;
75096;SDS011;63684;47.964;11.186;2023-05-08T05:28:45;3.60;;;1.00;;
75096;SDS011;63684;47.964;11.186;2023-05-08T05:31:11;1.53;;;1.20;;
75096;SDS011;63684;47.964;11.186;2023-05-08T05:33:37;2.47;;;1.43;;
75096;SDS011;63684;47.964;11.186;2023-05-08T05:36:02;1.40;;;1.30;;
75096;SDS011;63684;47.964;11.186;2023-05-08T05:38:28;1.70;;;1.50;;
75096;SDS011;63684;47.964;11.186;2023-05-08T05:40:53;1.80;;;1.70;;
75096;SDS011;63684;47.964;11.186;2023-05-08T05:43:19;2.13;;;1.53;;
75096;SDS011;63684;47.964;11.186;2023-05-08T05:45:45;2.37;;;1.60;;
75096;SDS011;63684;47.964;11.186;2023-05-08T05:48:10;2.73;;;1.30;;
75096;SDS011;63684;47.964;11.186;2023-05-08T05:50:36;2.63;;;1.70;;
75096;SDS011;63684;47.964;11.186;2023-05-08T05:53:02;2.60;;;2.13;;
75096;SDS011;63684;47.964;11.186;2023-05-08T05:55:28;2.10;;;1.97;;
75096;SDS011;63684;47.964;11.186;2023-05-08T05:57:53;2.83;;;1.80;;
75096;SDS011;63684;47.964;11.186;2023-05-08T06:00:19;3.13;;;2.00;;
75096;SDS011;63684;47.964;11.186;2023-05-08T06:02:49;2.17;;;2.00;;
75096;SDS011;63684;47.964;11.186;2023-05-08T06:05:15;2.07;;;1.97;;
75096;SDS011;63684;47.964;11.186;2023-05-08T06:07:43;2.33;;;2.13;;
75096;SDS011;63684;47.964;11.186;2023-05-08T06:10:08;2.97;;;2.40;;
75096;SDS011;63684;47.964;11.186;2023-05-08T06:12:35;3.43;;;2.70;;
75096;SDS011;63684;47.964;11.186;2023-05-08T06:15:01;3.10;;;2.80;;
75096;SDS011;63684;47.964;11.186;2023-05-08T06:17:27;3.37;;;3.00;;
75096;SDS011;63684;47.964;11.186;2023-05-08T06:19:52;4.10;;;2.90;;
75096;SDS011;63684;47.964;11.186;2023-05-08T06:22:20;4.27;;;3.30;;
75096;SDS011;63684;47.964;11.186;2023-05-08T06:24:51;3.50;;;2.67;;
75096;SDS011;63684;47.964;11.186;2023-05-08T06:27:21;3.37;;;3.07;;
75096;SDS011;63684;47.964;11.186;2023-05-08T06:29:47;3.50;;;2.90;;
75096;SDS011;63684;47.964;11.186;2023-05-08T06:32:15;4.53;;;4.13;;
75096;SDS011;63684;47.964;11.186;2023-05-08T06:34:42;4.40;;;4.00;;
75096;SDS011;63684;47.964;11.186;2023-05-08T06:37:07;4.97;;;3.73;;
75096;SDS011;63684;47.964;11.186;2023-05-08T06:39:33;5.40;;;4.17;;
75096;SDS011;63684;47.964;11.186;2023-05-08T06:41:58;4.83;;;4.43;;
75096;SDS011;63684;47.964;11.186;2023-05-08T06:44:28;4.43;;;4.07;;
75096;SDS011;63684;47.964;11.186;2023-05-08T06:46:54;5.37;;;4.77;;
75096;SDS011;63684;47.964;11.186;2023-05-08T06:49:19;6.27;;;5.43;;
75096;SDS011;63684;47.964;11.186;2023-05-08T06:51:45;5.83;;;4.77;;
75096;SDS011;63684;47.964;11.186;2023-05-08T06:54:10;4.77;;;4.10;;
75096;SDS011;63684;47.964;11.186;2023-05-08T06:56:36;7.20;;;4.60;;
75096;SDS011;63684;47.964;11.186;2023-05-08T06:59:01;5.53;;;4.73;;
75096;SDS011;63684;47.964;11.186;2023-05-08T07:01:27;6.50;;;4.40;;
75096;SDS011;63684;47.964;11.186;2023-05-08T07:03:52;4.43;;;3.80;;
75096;SDS011;63684;47.964;11.186;2023-05-08T07:06:17;5.93;;;4.17;;
75096;SDS011;63684;47.964;11.186;2023-05-08T07:08:43;5.27;;;4.37;;
75096;SDS011;63684;47.964;11.186;2023-05-08T07:11:08;4.97;;;4.57;;
75096;SDS011;63684;47.964;11.186;2023-05-08T07:13:37;7.67;;;5.53;;
75096;SDS011;63684;47.964;11.186;2023-05-08T07:16:07;6.23;;;5.50;;
75096;SDS011;63684;47.964;11.186;2023-05-08T07:18:35;6.37;;;5.50;;
75096;SDS011;63684;47.964;11.186;2023-05-08T07:21:01;6.80;;;6.20;;
75096;SDS011;63684;47.964;11.186;2023-05-08T07:23:27;6.90;;;6.20;;
75096;SDS011;63684;47.964;11.186;2023-05-08T07:25:52;6.37;;;5.30;;
75096;SDS011;63684;47.964;11.186;2023-05-08T07:28:18;4.90;;;4.50;;
75096;SDS011;63684;47.964;11.186;2023-05-08T07:30:44;8.60;;;6.63;;
75096;SDS011;63684;47.964;11.186;2023-05-08T07:33:10;7.43;;;6.43;;
75096;SDS011;63684;47.964;11.186;2023-05-08T07:35:37;7.17;;;6.47;;
75096;SDS011;63684;47.964;11.186;2023-05-08T07:38:03;7.97;;;6.20;;
75096;SDS011;63684;47.964;11.186;2023-05-08T07:40:28;7.47;;;4.83;;
75096;SDS011;63684;47.964;11.186;2023-05-08T07:42:54;5.93;;;4.83;;
75096;SDS011;63684;47.964;11.186;2023-05-08T07:45:19;11.17;;;6.50;;
75096;SDS011;63684;47.964;11.186;2023-05-08T07:48:03;8.67;;;7.17;;
75096;SDS011;63684;47.964;11.186;2023-05-08T07:50:29;8.50;;;7.07;;
75096;SDS011;63684;47.964;11.186;2023-05-08T07:52:54;7.03;;;6.33;;
75096;SDS011;63684;47.964;11.186;2023-05-08T07:55:19;8.97;;;5.97;;
75096;SDS011;63684;47.964;11.186;2023-05-08T07:57:45;7.53;;;5.70;;
75096;SDS011;63684;47.964;11.186;2023-05-08T08:00:11;5.97;;;5.30;;
75096;SDS011;63684;47.964;11.186;2023-05-08T08:02:41;6.00;;;5.37;;
75096;SDS011;63684;47.964;11.186;2023-05-08T08:05:07;4.07;;;3.63;;
75096;SDS011;63684;47.964;11.186;2023-05-08T08:07:33;3.87;;;3.47;;
75096;SDS011;63684;47.964;11.186;2023-05-08T08:09:59;6.13;;;5.63;;
75096;SDS011;63684;47.964;11.186;2023-05-08T08:12:25;8.17;;;6.63;;
75096;SDS011;63684;47.964;11.186;2023-05-08T08:14:51;6.33;;;5.77;;
75096;SDS011;63684;47.964;11.186;2023-05-08T08:17:16;7.30;;;6.60;;
75096;SDS011;63684;47.964;11.186;2023-05-08T08:19:42;8.87;;;7.97;;
75096;SDS011;63684;47.964;11.186;2023-05-08T08:22:07;8.30;;;7.50;;
75096;SDS011;63684;47.964;11.186;2023-05-08T08:24:33;6.07;;;5.43;;
75096;SDS011;63684;47.964;11.186;2023-05-08T08:26:58;5.83;;;5.27;;
75096;SDS011;63684;47.964;11.186;2023-05-08T08:29:23;7.57;;;6.47;;
75096;SDS011;63684;47.964;11.186;2023-05-08T08:31:49;10.10;;;9.10;;
75096;SDS011;63684;47.964;11.186;2023-05-08T08:34:15;10.50;;;9.40;;
75096;SDS011;63684;47.964;11.186;2023-05-08T08:36:40;8.73;;;7.43;;
75096;SDS011;63684;47.964;11.186;2023-05-08T08:39:06;11.27;;;8.37;;
75096;SDS011;63684;47.964;11.186;2023-05-08T08:41:31;21.43;;;10.23;;
75096;SDS011;63684;47.964;11.186;2023-05-08T08:43:57;29.93;;;11.70;;
75096;SDS011;63684;47.964;11.186;2023-05-08T08:46:23;15.70;;;10.33;;
75096;SDS011;63684;47.964;11.186;2023-05-08T08:48:50;17.30;;;11.27;;
75096;SDS011;63684;47.964;11.186;2023-05-08T08:51:23;12.83;;;10.00;;
75096;SDS011;63684;47.964;11.186;2023-05-08T08:54:07;10.63;;;9.13;;
75096;SDS011;63684;47.964;11.186;2023-05-08T08:56:35;10.40;;;8.67;;
75096;SDS011;63684;47.964;11.186;2023-05-08T08:59:01;8.90;;;8.00;;
75096;SDS011;63684;47.964;11.186;2023-05-08T09:01:27;10.23;;;9.10;;
75096;SDS011;63684;47.964;11.186;2023-05-08T09:03:57;10.93;;;9.47;;
75096;SDS011;63684;47.964;11.186;2023-05-08T09:06:23;10.77;;;9.53;;
75096;SDS011;63684;47.964;11.186;2023-05-08T09:08:52;12.17;;;10.23;;
75096;SDS011;63684;47.964;11.186;2023-05-08T09:11:20;11.83;;;10.63;;
75096;SDS011;63684;47.964;11.186;2023-05-08T09:13:45;10.77;;;9.60;;
75096;SDS011;63684;47.964;11.186;2023-05-08T09:16:11;10.50;;;9.43;;
75096;SDS011;63684;47.964;11.186;2023-05-08T09:18:36;9.77;;;8.80;;
75096;SDS011;63684;47.964;11.186;2023-05-08T09:21:02;10.17;;;9.17;;
75096;SDS011;63684;47.964;11.186;2023-05-08T09:23:30;9.67;;;8.77;;
75096;SDS011;63684;47.964;11.186;2023-05-08T09:25:55;10.88;;;9.77;;
75096;SDS011;63684;47.964;11.186;2023-05-08T09:28:22;13.47;;;12.07;;
75096;SDS011;63684;47.964;11.186;2023-05-08T09:30:49;13.57;;;12.13;;
75096;SDS011;63684;47.964;11.186;2023-05-08T09:33:20;13.40;;;11.88;;
75096;SDS011;63684;47.964;11.186;2023-05-08T09:35:46;20.67;;;11.85;;
75096;SDS011;63684;47.964;11.186;2023-05-08T09:41:11;14.13;;;12.63;;
75096;SDS011;63684;47.964;11.186;2023-05-08T09:43:39;14.20;;;10.85;;
75096;SDS011;63684;47.964;11.186;2023-05-08T09:48:42;14.73;;;13.20;;
75096;SDS011;63684;47.964;11.186;2023-05-08T09:51:09;14.52;;;12.10;;
75096;SDS011;63684;47.964;11.186;2023-05-08T09:53:35;13.85;;;12.40;;
75096;SDS011;63684;47.964;11.186;2023-05-08T09:56:00;15.23;;;11.77;;
75096;SDS011;63684;47.964;11.186;2023-05-08T09:58:27;13.30;;;10.57;;
75096;SDS011;63684;47.964;11.186;2023-05-08T10:01:02;12.10;;;10.73;;
75096;SDS011;63684;47.964;11.186;2023-05-08T10:03:47;11.97;;;10.80;;
75096;SDS011;63684;47.964;11.186;2023-05-08T10:06:13;14.68;;;11.02;;
75096;SDS011;63684;47.964;11.186;2023-05-08T10:08:39;12.77;;;10.35;;
75096;SDS011;63684;47.964;11.186;2023-05-08T10:11:37;10.68;;;9.68;;
75096;SDS011;63684;47.964;11.186;2023-05-08T10:13:56;11.27;;;9.65;;
75096;SDS011;63684;47.964;11.186;2023-05-08T10:16:22;13.77;;;11.05;;
75096;SDS011;63684;47.964;11.186;2023-05-08T10:18:48;11.00;;;9.70;;
75096;SDS011;63684;47.964;11.186;2023-05-08T10:21:14;10.43;;;9.32;;
75096;SDS011;63684;47.964;11.186;2023-05-08T10:23:43;10.68;;;9.57;;
75096;SDS011;63684;47.964;11.186;2023-05-08T10:26:18;10.95;;;9.82;;
75096;SDS011;63684;47.964;11.186;2023-05-08T10:28:56;12.85;;;11.02;;
75096;SDS011;63684;47.964;11.186;2023-05-08T10:31:30;14.43;;;11.03;;
75096;SDS011;63684;47.964;11.186;2023-05-08T10:33:59;12.77;;;10.35;;
75096;SDS011;63684;47.964;11.186;2023-05-08T10:36:29;15.97;;;11.90;;
75096;SDS011;63684;47.964;11.186;2023-05-08T10:38:58;13.90;;;12.17;;
75096;SDS011;63684;47.964;11.186;2023-05-08T10:41:23;13.40;;;12.00;;
75096;SDS011;63684;47.964;11.186;2023-05-08T10:43:50;14.90;;;12.23;;
75096;SDS011;63684;47.964;11.186;2023-05-08T10:46:59;13.87;;;12.57;;
75096;SDS011;63684;47.964;11.186;2023-05-08T10:49:11;14.93;;;11.57;;
75096;SDS011;63684;47.964;11.186;2023-05-08T10:51:43;16.43;;;12.23;;
75096;SDS011;63684;47.964;11.186;2023-05-08T10:55:00;12.47;;;11.27;;
75096;SDS011;63684;47.964;11.186;2023-05-08T10:57:22;13.77;;;11.20;;
75096;SDS011;63684;47.964;11.186;2023-05-08T10:59:48;14.83;;;11.77;;
75096;SDS011;63684;47.964;11.186;2023-05-08T11:02:13;13.67;;;11.70;;
75096;SDS011;63684;47.964;11.186;2023-05-08T11:04:41;18.87;;;12.17;;
75096;SDS011;63684;47.964;11.186;2023-05-08T11:07:08;12.90;;;11.60;;
75096;SDS011;63684;47.964;11.186;2023-05-08T11:12:06;14.90;;;12.23;;
75096;SDS011;63684;47.964;11.186;2023-05-08T11:14:37;16.33;;;13.20;;
75096;SDS011;63684;47.964;11.186;2023-05-08T11:17:03;13.80;;;12.45;;
75096;SDS011;63684;47.964;11.186;2023-05-08T11:19:30;15.33;;;13.57;;
75096;SDS011;63684;47.964;11.186;2023-05-08T11:22:14;17.03;;;14.47;;
75096;SDS011;63684;47.964;11.186;2023-05-08T11:25:03;16.10;;;13.23;;
75096;SDS011;63684;47.964;11.186;2023-05-08T11:27:37;14.67;;;13.17;;
75096;SDS011;63684;47.964;11.186;2023-05-08T11:38:13;15.00;;;13.48;;
75096;SDS011;63684;47.964;11.186;2023-05-08T11:41:00;14.85;;;11.82;;
75096;SDS011;63684;47.964;11.186;2023-05-08T11:49:18;15.95;;;14.25;;
75096;SDS011;63684;47.964;11.186;2023-05-08T11:51:47;14.13;;;12.73;;
75096;SDS011;63684;47.964;11.186;2023-05-08T11:54:15;15.00;;;13.50;;
75096;SDS011;63684;47.964;11.186;2023-05-08T11:56:41;15.50;;;13.68;;
75096;SDS011;63684;47.964;11.186;2023-05-08T11:59:07;15.50;;;13.85;;
75096;SDS011;63684;47.964;11.186;2023-05-08T12:01:33;15.00;;;13.55;;
75096;SDS011;63684;47.964;11.186;2023-05-08T12:04:06;17.05;;;14.73;;
75096;SDS011;63684;47.964;11.186;2023-05-08T12:06:34;16.42;;;14.60;;
75096;SDS011;63684;47.964;11.186;2023-05-08T12:09:02;18.23;;;14.40;;
75096;SDS011;63684;47.964;11.186;2023-05-08T12:11:33;17.85;;;14.40;;
75096;SDS011;63684;47.964;11.186;2023-05-08T12:13:59;15.95;;;14.35;;
75096;SDS011;63684;47.964;11.186;2023-05-08T12:16:24;16.17;;;14.27;;
75096;SDS011;63684;47.964;11.186;2023-05-08T12:18:50;14.85;;;13.25;;
75096;SDS011;63684;47.964;11.186;2023-05-08T12:21:16;14.80;;;12.52;;
75096;SDS011;63684;47.964;11.186;2023-05-08T12:23:42;14.40;;;13.02;;
75096;SDS011;63684;47.964;11.186;2023-05-08T12:26:08;15.25;;;13.38;;
75096;SDS011;63684;47.964;11.186;2023-05-08T12:28:33;15.10;;;13.50;;
75096;SDS011;63684;47.964;11.186;2023-05-08T12:31:02;16.95;;;13.32;;
75096;SDS011;63684;47.964;11.186;2023-05-08T12:33:27;17.25;;;12.90;;
75096;SDS011;63684;47.964;11.186;2023-05-08T12:35:54;16.15;;;12.60;;
75096;SDS011;63684;47.964;11.186;2023-05-08T12:38:24;15.82;;;13.55;;
75096;SDS011;63684;47.964;11.186;2023-05-08T12:40:50;15.13;;;13.55;;
75096;SDS011;63684;47.964;11.186;2023-05-08T12:43:34;15.85;;;13.15;;
75096;SDS011;63684;47.964;11.186;2023-05-08T12:46:00;17.48;;;13.55;;
75096;SDS011;63684;47.964;11.186;2023-05-08T12:48:26;14.40;;;12.73;;
75096;SDS011;63684;47.964;11.186;2023-05-08T12:50:53;17.23;;;13.23;;
75096;SDS011;63684;47.964;11.186;2023-05-08T12:53:18;17.10;;;13.18;;
75096;SDS011;63684;47.964;11.186;2023-05-08T12:55:52;15.52;;;13.20;;
75096;SDS011;63684;47.964;11.186;2023-05-08T12:58:19;13.80;;;12.35;;
75096;SDS011;63684;47.964;11.186;2023-05-08T13:00:48;14.52;;;13.00;;
75096;SDS011;63684;47.964;11.186;2023-05-08T13:03:25;15.13;;;13.07;;
75096;SDS011;63684;47.964;11.186;2023-05-08T13:05:52;14.40;;;12.85;;
75096;SDS011;63684;47.964;11.186;2023-05-08T13:08:19;16.25;;;13.70;;
75096;SDS011;63684;47.964;11.186;2023-05-08T13:10:54;16.55;;;13.93;;
75096;SDS011;63684;47.964;11.186;2023-05-08T13:13:23;16.67;;;13.55;;
75096;SDS011;63684;47.964;11.186;2023-05-08T13:15:51;14.52;;;13.02;;
75096;SDS011;63684;47.964;11.186;2023-05-08T13:18:18;16.77;;;13.30;;
75096;SDS011;63684;47.964;11.186;2023-05-08T13:20:44;13.95;;;12.43;;
75096;SDS011;63684;47.964;11.186;2023-05-08T13:23:10;15.93;;;14.05;;
75096;SDS011;63684;47.964;11.186;2023-05-08T13:25:36;17.98;;;13.73;;
75096;SDS011;63684;47.964;11.186;2023-05-08T13:28:02;14.77;;;13.18;;
75096;SDS011;63684;47.964;11.186;2023-05-08T13:30:28;18.60;;;14.60;;
75096;SDS011;63684;47.964;11.186;2023-05-08T13:32:54;17.55;;;13.82;;
75096;SDS011;63684;47.964;11.186;2023-05-08T13:35:19;17.17;;;14.32;;
75096;SDS011;63684;47.964;11.186;2023-05-08T13:37:45;15.45;;;13.68;;
75096;SDS011;63684;47.964;11.186;2023-05-08T13:40:11;16.55;;;13.88;;
75096;SDS011;63684;47.964;11.186;2023-05-08T13:42:37;16.73;;;14.65;;
75096;SDS011;63684;47.964;11.186;2023-05-08T13:45:03;15.00;;;13.50;;
75096;SDS011;63684;47.964;11.186;2023-05-08T13:47:29;15.98;;;14.30;;
75096;SDS011;63684;47.964;11.186;2023-05-08T13:49:55;21.83;;;15.23;;
75096;SDS011;63684;47.964;11.186;2023-05-08T13:52:20;19.10;;;13.93;;
75096;SDS011;63684;47.964;11.186;2023-05-08T13:54:46;18.95;;;14.80;;
75096;SDS011;63684;47.964;11.186;2023-05-08T13:57:11;19.42;;;15.00;;
75096;SDS011;63684;47.964;11.186;2023-05-08T13:59:37;16.65;;;14.27;;
75096;SDS011;63684;47.964;11.186;2023-05-08T14:02:03;19.83;;;14.45;;
75096;SDS011;63684;47.964;11.186;2023-05-08T14:04:28;17.30;;;14.20;;
75096;SDS011;63684;47.964;11.186;2023-05-08T14:06:54;15.25;;;13.75;;
75096;SDS011;63684;47.964;11.186;2023-05-08T14:09:19;15.95;;;14.02;;
75096;SDS011;63684;47.964;11.186;2023-05-08T14:11:44;14.63;;;13.10;;
75096;SDS011;63684;47.964;11.186;2023-05-08T14:14:10;14.40;;;12.98;;
75096;SDS011;63684;47.964;11.186;2023-05-08T14:16:35;15.70;;;14.13;;
75096;SDS011;63684;47.964;11.186;2023-05-08T14:19:01;20.10;;;14.00;;
75096;SDS011;63684;47.964;11.186;2023-05-08T14:21:26;18.45;;;15.07;;
75096;SDS011;63684;47.964;11.186;2023-05-08T14:23:52;20.20;;;14.48;;
75096;SDS011;63684;47.964;11.186;2023-05-08T14:26:18;15.38;;;13.77;;
75096;SDS011;63684;47.964;11.186;2023-05-08T14:28:44;16.25;;;14.55;;
75096;SDS011;63684;47.964;11.186;2023-05-08T14:31:09;19.55;;;14.98;;
75096;SDS011;63684;47.964;11.186;2023-05-08T14:33:34;16.73;;;14.98;;
75096;SDS011;63684;47.964;11.186;2023-05-08T14:36:00;16.13;;;14.18;;
75096;SDS011;63684;47.964;11.186;2023-05-08T14:38:25;16.65;;;14.95;;
75096;SDS011;63684;47.964;11.186;2023-05-08T14:40:51;19.38;;;12.85;;
75096;SDS011;63684;47.964;11.186;2023-05-08T14:43:18;16.20;;;14.48;;
75096;SDS011;63684;47.964;11.186;2023-05-08T14:45:44;16.80;;;13.98;;
75096;SDS011;63684;47.964;11.186;2023-05-08T14:48:10;16.10;;;13.10;;
75096;SDS011;63684;47.964;11.186;2023-05-08T14:50:35;14.68;;;13.25;;
75096;SDS011;63684;47.964;11.186;2023-05-08T14:53:00;15.30;;;13.70;;
75096;SDS011;63684;47.964;11.186;2023-05-08T14:55:26;15.27;;;12.55;;
75096;SDS011;63684;47.964;11.186;2023-05-08T14:57:52;15.65;;;13.88;;
75096;SDS011;63684;47.964;11.186;2023-05-08T15:00:17;13.73;;;12.35;;
75096;SDS011;63684;47.964;11.186;2023-05-08T15:02:44;15.85;;;13.15;;
75096;SDS011;63684;47.964;11.186;2023-05-08T15:05:10;14.48;;;12.98;;
75096;SDS011;63684;47.964;11.186;2023-05-08T15:07:35;15.77;;;13.55;;
75096;SDS011;63684;47.964;11.186;2023-05-08T15:10:01;15.60;;;13.25;;
75096;SDS011;63684;47.964;11.186;2023-05-08T15:12:27;15.32;;;13.70;;
75096;SDS011;63684;47.964;11.186;2023-05-08T15:14:52;14.43;;;12.65;;